createdAt,value
2023-04-09T00:01:40.078Z,11.77
2023-04-09T00:04:08.770Z,11.80
2023-04-09T00:06:37.383Z,12.50
2023-04-09T00:09:05.790Z,11.53
2023-04-09T00:11:34.651Z,11.97
2023-04-09T00:14:03.485Z,11.70
2023-04-09T00:16:32.076Z,12.17
2023-04-09T00:19:00.957Z,12.80
2023-04-09T00:21:29.516Z,12.07
2023-04-09T00:23:58.023Z,13.03
2023-04-09T00:26:26.565Z,13.03
2023-04-09T00:28:55.458Z,12.70
2023-04-09T00:31:24.132Z,12.40
2023-04-09T00:33:53.010Z,10.95
2023-04-09T00:36:22.223Z,11.40
2023-04-09T00:38:51.374Z,12.40
2023-04-09T00:41:20.860Z,12.77
2023-04-09T00:43:49.383Z,12.00
2023-04-09T00:46:19.403Z,11.97
2023-04-09T00:48:48.083Z,12.97
2023-04-09T00:51:16.454Z,12.73
2023-04-09T00:53:45.257Z,13.63
2023-04-09T00:56:14.162Z,13.50
2023-04-09T00:58:42.868Z,12.67
2023-04-09T01:01:11.258Z,13.23
2023-04-09T01:03:40.229Z,12.40
2023-04-09T01:06:11.244Z,13.53
2023-04-09T01:08:41.606Z,11.43
2023-04-09T01:11:11.725Z,12.07
2023-04-09T01:13:42.400Z,12.90
2023-04-09T01:16:13.426Z,12.80
2023-04-09T01:18:49.681Z,12.93
2023-04-09T01:21:20.458Z,13.20
2023-04-09T01:23:59.733Z,13.20
2023-04-09T01:26:40.770Z,11.73
2023-04-09T01:29:09.729Z,12.60
2023-04-09T01:31:39.605Z,10.33
2023-04-09T01:34:09.356Z,12.43
2023-04-09T01:36:39.430Z,11.87
2023-04-09T01:39:08.303Z,12.63
2023-04-09T01:41:38.137Z,13.37
2023-04-09T01:44:08.233Z,12.97
2023-04-09T01:46:37.317Z,13.97
2023-04-09T01:49:06.347Z,12.13
2023-04-09T01:51:35.104Z,13.70
2023-04-09T01:54:03.709Z,12.37
2023-04-09T01:56:43.034Z,12.85
2023-04-09T01:59:11.534Z,14.50
2023-04-09T02:01:42.395Z,14.63
2023-04-09T02:04:12.903Z,12.82
2023-04-09T02:06:46.086Z,13.63
2023-04-09T02:09:15.911Z,14.60
2023-04-09T02:11:46.637Z,13.17
2023-04-09T02:14:15.881Z,12.73
2023-04-09T02:16:44.368Z,12.40
2023-04-09T02:19:12.896Z,13.13
2023-04-09T02:21:41.421Z,14.13
2023-04-09T02:24:09.601Z,14.90
2023-04-09T02:26:38.477Z,13.55
2023-04-09T02:29:07.347Z,15.48
2023-04-09T02:31:35.896Z,13.97
2023-04-09T02:34:05.464Z,14.03
2023-04-09T02:36:33.977Z,14.93
2023-04-09T02:39:04.115Z,14.77
2023-04-09T02:41:32.972Z,15.35
2023-04-09T02:44:01.815Z,14.60
2023-04-09T02:46:30.727Z,12.73
2023-04-09T02:48:59.601Z,12.93
2023-04-09T02:51:28.438Z,14.30
2023-04-09T02:53:57.201Z,15.15
2023-04-09T02:56:25.807Z,14.13
2023-04-09T02:58:55.169Z,15.47
2023-04-09T03:01:23.702Z,15.67
2023-04-09T03:03:52.308Z,14.33
2023-04-09T03:06:20.953Z,14.50
2023-04-09T03:08:49.695Z,14.80
2023-04-09T03:11:18.226Z,14.50
2023-04-09T03:13:47.519Z,15.37
2023-04-09T03:16:15.829Z,11.83
2023-04-09T03:18:44.544Z,13.77
2023-04-09T03:21:14.873Z,15.47
2023-04-09T03:23:44.592Z,14.27
2023-04-09T03:26:12.827Z,15.37
2023-04-09T03:28:42.769Z,14.67
2023-04-09T03:31:11.204Z,13.63
2023-04-09T03:33:40.552Z,14.53
2023-04-09T03:36:09.237Z,13.57
2023-04-09T03:38:45.968Z,15.67
2023-04-09T03:41:16.375Z,14.93
2023-04-09T03:43:45.155Z,15.60
2023-04-09T03:46:17.184Z,15.47
2023-04-09T03:48:46.444Z,14.43
2023-04-09T03:51:16.194Z,14.13
2023-04-09T03:53:48.347Z,16.87
2023-04-09T03:56:16.748Z,15.67
2023-04-09T03:58:45.429Z,16.07
2023-04-09T04:01:15.468Z,15.33
2023-04-09T04:03:45.602Z,16.10
2023-04-09T04:06:15.902Z,15.27
2023-04-09T04:09:02.679Z,14.40
2023-04-09T04:11:35.795Z,15.93
2023-04-09T04:14:04.816Z,15.28
2023-04-09T04:16:33.772Z,15.13
2023-04-09T04:19:02.499Z,14.10
2023-04-09T04:21:31.959Z,15.37
2023-04-09T04:24:02.566Z,13.90
2023-04-09T04:26:31.565Z,15.63
2023-04-09T04:29:00.056Z,16.03
2023-04-09T04:31:39.761Z,15.80
2023-04-09T04:34:07.963Z,14.57
2023-04-09T04:36:37.794Z,14.83
2023-04-09T04:39:07.117Z,15.13
2023-04-09T04:41:37.101Z,15.83
2023-04-09T04:44:13.246Z,15.30
2023-04-09T04:46:42.428Z,15.08
2023-04-09T04:49:11.796Z,14.57
2023-04-09T04:51:41.764Z,15.40
2023-04-09T04:54:11.365Z,14.50
2023-04-09T04:56:40.987Z,15.33
2023-04-09T04:59:10.974Z,15.87
2023-04-09T05:01:44.201Z,15.43
2023-04-09T05:04:13.050Z,14.50
2023-04-09T05:06:42.343Z,14.98
2023-04-09T05:09:12.779Z,16.67
2023-04-09T05:11:42.715Z,14.40
2023-04-09T05:14:13.354Z,11.70
2023-04-09T05:16:42.091Z,14.97
2023-04-09T05:19:10.993Z,15.20
2023-04-09T05:21:39.791Z,15.57
2023-04-09T05:24:08.490Z,13.53
2023-04-09T05:26:37.334Z,15.05
2023-04-09T05:29:05.691Z,14.37
2023-04-09T05:31:35.317Z,15.70
2023-04-09T05:34:06.223Z,15.10
2023-04-09T05:36:36.468Z,15.53
2023-04-09T05:39:05.189Z,13.77
2023-04-09T05:41:33.873Z,14.67
2023-04-09T05:44:07.158Z,14.23
2023-04-09T05:46:35.958Z,16.27
2023-04-09T05:49:05.078Z,13.60
2023-04-09T05:51:34.394Z,15.23
2023-04-09T05:54:03.999Z,15.27
2023-04-09T05:56:34.277Z,14.80
2023-04-09T05:59:03.115Z,15.28
2023-04-09T06:01:31.812Z,14.87
2023-04-09T06:04:00.700Z,15.83
2023-04-09T06:06:29.921Z,15.37
2023-04-09T06:08:58.472Z,15.37
2023-04-09T06:11:27.371Z,16.12
2023-04-09T06:13:55.915Z,17.47
2023-04-09T06:16:24.497Z,15.47
2023-04-09T06:18:54.505Z,16.60
2023-04-09T06:21:23.027Z,16.63
2023-04-09T06:23:53.642Z,15.97
2023-04-09T06:26:22.666Z,16.35
2023-04-09T06:28:52.350Z,17.17
2023-04-09T06:31:21.869Z,15.33
2023-04-09T06:33:50.635Z,14.87
2023-04-09T06:36:20.382Z,15.80
2023-04-09T06:38:48.984Z,16.57
2023-04-09T06:41:17.502Z,15.40
2023-04-09T06:43:46.078Z,15.30
2023-04-09T06:46:16.268Z,15.67
2023-04-09T06:48:44.856Z,16.47
2023-04-09T06:51:14.805Z,15.70
2023-04-09T06:53:43.491Z,17.47
2023-04-09T06:56:11.787Z,15.53
2023-04-09T06:58:42.263Z,15.00
2023-04-09T07:01:11.122Z,15.90
2023-04-09T07:03:40.597Z,16.12
2023-04-09T07:06:12.526Z,15.67
2023-04-09T07:08:41.089Z,15.97
2023-04-09T07:11:09.337Z,14.40
2023-04-09T07:13:37.989Z,15.33
2023-04-09T07:16:06.701Z,14.67
2023-04-09T07:18:35.286Z,15.00
2023-04-09T07:21:05.240Z,16.50
2023-04-09T07:23:37.292Z,15.27
2023-04-09T07:26:07.163Z,16.43
2023-04-09T07:28:35.706Z,15.87
2023-04-09T07:31:05.304Z,15.88
2023-04-09T07:33:33.957Z,14.30
2023-04-09T07:36:02.779Z,17.40
2023-04-09T07:38:31.451Z,14.93
2023-04-09T07:41:00.168Z,14.33
2023-04-09T07:43:28.684Z,16.47
2023-04-09T07:45:59.371Z,15.38
2023-04-09T07:48:28.852Z,15.43
2023-04-09T07:50:57.405Z,16.40
2023-04-09T07:53:25.931Z,15.13
2023-04-09T07:55:54.466Z,16.00
2023-04-09T07:58:22.846Z,19.30
2023-04-09T08:00:51.367Z,15.10
2023-04-09T08:03:20.201Z,16.87
2023-04-09T08:05:49.027Z,15.33
2023-04-09T08:08:17.441Z,13.40
2023-04-09T08:10:46.125Z,14.67
2023-04-09T08:13:17.831Z,13.83
2023-04-09T08:15:46.366Z,14.70
2023-04-09T08:18:15.307Z,15.08
2023-04-09T08:20:45.526Z,13.78
2023-04-09T08:23:14.387Z,14.43
2023-04-09T08:25:43.201Z,13.90
2023-04-09T08:28:11.707Z,15.20
2023-04-09T08:30:40.374Z,13.87
2023-04-09T08:33:08.695Z,13.60
2023-04-09T08:35:38.140Z,14.70
2023-04-09T08:38:06.841Z,15.13
2023-04-09T08:40:36.093Z,14.60
2023-04-09T08:43:08.747Z,15.20
2023-04-09T08:45:37.403Z,15.40
2023-04-09T08:48:06.379Z,14.77
2023-04-09T08:50:36.224Z,14.50
2023-04-09T08:53:05.758Z,15.37
2023-04-09T08:55:35.417Z,15.20
2023-04-09T08:58:07.649Z,14.20
2023-04-09T09:00:36.256Z,14.03
2023-04-09T09:03:06.891Z,14.65
2023-04-09T09:05:42.473Z,13.20
2023-04-09T09:08:12.494Z,16.23
2023-04-09T09:10:45.360Z,15.85
2023-04-09T09:13:21.090Z,15.43
2023-04-09T09:15:52.227Z,12.73
2023-04-09T09:20:48.316Z,12.90
2023-04-09T09:23:16.930Z,14.23
2023-04-09T09:25:48.247Z,13.43
2023-04-09T09:28:16.789Z,12.50
2023-04-09T09:30:49.071Z,13.70
2023-04-09T09:33:17.082Z,13.03
2023-04-09T09:35:49.881Z,13.03
2023-04-09T09:38:19.029Z,11.80
2023-04-09T09:40:48.293Z,13.35
2023-04-09T09:43:16.905Z,13.57
2023-04-09T09:45:47.389Z,13.13
2023-04-09T09:48:16.286Z,12.63
2023-04-09T09:50:46.501Z,13.17
2023-04-09T09:53:14.881Z,13.43
2023-04-09T09:55:45.297Z,14.30
2023-04-09T09:58:15.834Z,23.17
2023-04-09T10:00:45.514Z,14.65
2023-04-09T10:03:18.279Z,13.40
2023-04-09T10:05:46.906Z,13.20
2023-04-09T10:08:15.908Z,14.20
2023-04-09T10:10:44.924Z,13.40
2023-04-09T10:13:23.496Z,12.93
2023-04-09T10:15:53.106Z,13.30
2023-04-09T10:18:21.375Z,15.43
2023-04-09T10:20:57.437Z,14.37
2023-04-09T10:23:36.388Z,15.33
2023-04-09T10:26:05.877Z,13.55
2023-04-09T10:28:34.698Z,12.63
2023-04-09T10:31:04.905Z,13.57
2023-04-09T10:33:38.193Z,13.33
2023-04-09T10:36:13.316Z,13.27
2023-04-09T10:38:43.390Z,12.27
2023-04-09T10:41:13.164Z,13.37
2023-04-09T10:43:41.858Z,13.23
2023-04-09T10:46:11.722Z,12.40
2023-04-09T10:48:40.537Z,13.62
2023-04-09T10:51:10.887Z,14.00
2023-04-09T10:53:39.410Z,14.07
2023-04-09T10:56:09.502Z,13.83
2023-04-09T10:58:38.085Z,13.57
2023-04-09T11:01:06.693Z,12.37
2023-04-09T11:03:37.065Z,12.50
2023-04-09T11:06:08.786Z,11.83
2023-04-09T11:08:38.520Z,13.22
2023-04-09T11:11:07.459Z,13.20
2023-04-09T11:13:36.558Z,15.83
2023-04-09T11:16:06.847Z,14.80
2023-04-09T11:18:36.839Z,15.00
2023-04-09T11:21:05.760Z,17.03
2023-04-09T11:23:34.989Z,14.85
2023-04-09T11:26:03.535Z,16.30
2023-04-09T11:28:32.212Z,14.70
2023-04-09T11:31:03.375Z,14.87
2023-04-09T11:33:34.811Z,14.67
2023-04-09T11:36:05.443Z,16.85
2023-04-09T11:38:34.690Z,13.57
2023-04-09T11:41:03.527Z,14.43
2023-04-09T11:43:32.050Z,13.00
2023-04-09T11:46:01.292Z,14.30
2023-04-09T11:48:31.269Z,14.60
2023-04-09T11:51:00.548Z,13.33
2023-04-09T11:53:31.133Z,17.98
2023-04-09T11:55:59.730Z,17.33
2023-04-09T11:58:28.258Z,15.50
2023-04-09T12:00:58.297Z,17.00
2023-04-09T12:03:29.323Z,15.90
2023-04-09T12:05:59.576Z,17.57
2023-04-09T12:08:28.418Z,15.53
2023-04-09T12:10:57.570Z,18.20
2023-04-09T12:13:27.660Z,17.27
2023-04-09T12:15:57.425Z,16.23
2023-04-09T12:18:26.583Z,21.30
2023-04-09T12:20:55.378Z,15.58
2023-04-09T12:23:23.612Z,17.03
2023-04-09T12:25:56.940Z,17.17
2023-04-09T12:28:30.170Z,20.90
2023-04-09T12:30:59.394Z,15.08
2023-04-09T12:33:31.585Z,14.47
2023-04-09T12:36:00.343Z,14.63
2023-04-09T12:38:28.940Z,15.53
2023-04-09T12:40:57.715Z,15.60
2023-04-09T12:43:26.321Z,13.87
2023-04-09T12:45:54.557Z,26.33
2023-04-09T12:48:23.036Z,15.10
2023-04-09T12:50:51.642Z,13.93
2023-04-09T12:53:20.435Z,14.73
2023-04-09T12:55:48.978Z,15.93
2023-04-09T12:58:17.620Z,15.23
2023-04-09T13:00:46.513Z,15.17
2023-04-09T13:03:16.757Z,14.57
2023-04-09T13:05:45.322Z,16.63
2023-04-09T13:08:13.910Z,15.23
2023-04-09T13:10:46.431Z,15.58
2023-04-09T13:13:15.049Z,15.67
2023-04-09T13:15:43.590Z,16.43
2023-04-09T13:18:13.056Z,16.03
2023-04-09T13:20:42.107Z,15.83
2023-04-09T13:23:10.480Z,17.03
2023-04-09T13:25:38.996Z,16.77
2023-04-09T13:28:07.568Z,15.37
2023-04-09T13:30:36.416Z,15.70
2023-04-09T13:33:05.532Z,16.30
2023-04-09T13:35:34.404Z,14.63
2023-04-09T13:38:03.225Z,21.75
2023-04-09T13:40:31.761Z,21.67
2023-04-09T13:43:00.497Z,17.03
2023-04-09T13:45:29.346Z,19.62
2023-04-09T13:47:58.300Z,18.25
2023-04-09T13:50:26.979Z,15.57
2023-04-09T13:52:55.830Z,14.95
2023-04-09T13:55:24.457Z,13.57
2023-04-09T13:57:53.308Z,16.90
2023-04-09T14:00:22.063Z,16.00
2023-04-09T14:02:51.056Z,15.13
2023-04-09T14:05:19.591Z,16.10
2023-04-09T14:07:48.137Z,17.90
2023-04-09T14:10:16.684Z,16.53
2023-04-09T14:12:45.410Z,16.93
2023-04-09T14:18:31.426Z,15.80
2023-04-09T14:21:00.313Z,18.65
2023-04-09T14:23:28.964Z,15.47
2023-04-09T14:25:57.502Z,19.53
2023-04-09T14:28:26.409Z,16.40
2023-04-09T14:30:54.961Z,17.77
2023-04-09T14:33:23.363Z,15.73
2023-04-09T14:35:52.450Z,17.23
2023-04-09T14:38:21.189Z,17.07
2023-04-09T14:40:49.699Z,15.17
2023-04-09T14:43:18.289Z,16.07
2023-04-09T14:45:46.799Z,16.03
2023-04-09T14:48:15.189Z,15.90
2023-04-09T14:50:44.026Z,15.50
2023-04-09T14:53:12.522Z,17.07
2023-04-09T14:55:41.312Z,16.97
2023-04-09T14:58:09.610Z,16.37
2023-04-09T15:00:39.016Z,15.63
2023-04-09T15:03:07.490Z,15.83
2023-04-09T15:05:36.524Z,15.83
2023-04-09T15:08:05.509Z,16.75
2023-04-09T15:10:35.875Z,14.85
2023-04-09T15:13:05.248Z,15.00
2023-04-09T15:15:34.139Z,16.95
2023-04-09T15:18:04.677Z,16.12
2023-04-09T15:20:34.555Z,15.33
2023-04-09T15:23:02.906Z,14.83
2023-04-09T15:25:32.583Z,14.47
2023-04-09T15:28:02.234Z,15.03
2023-04-09T15:30:30.959Z,16.33
2023-04-09T15:32:59.543Z,15.33
2023-04-09T15:35:31.608Z,15.38
2023-04-09T15:38:00.227Z,16.30
2023-04-09T15:40:29.121Z,16.77
2023-04-09T15:43:00.585Z,14.13
2023-04-09T15:47:58.472Z,16.62
2023-04-09T15:50:27.031Z,17.55
2023-04-09T15:52:56.117Z,15.30
2023-04-09T15:55:26.191Z,15.97
2023-04-09T15:57:55.223Z,14.43
2023-04-09T16:00:24.246Z,14.93
2023-04-09T16:02:53.365Z,15.30
2023-04-09T16:05:21.695Z,16.73
2023-04-09T16:07:51.349Z,16.12
2023-04-09T16:10:19.740Z,17.93
2023-04-09T16:12:48.616Z,17.17
2023-04-09T16:15:17.161Z,15.67
2023-04-09T16:17:49.276Z,14.50
2023-04-09T16:20:17.648Z,13.93
2023-04-09T16:22:46.311Z,18.10
2023-04-09T16:25:17.680Z,17.47
2023-04-09T16:27:46.220Z,17.07
2023-04-09T16:30:15.759Z,16.93
2023-04-09T16:32:44.445Z,17.60
2023-04-09T16:35:12.764Z,17.50
2023-04-09T16:37:41.289Z,15.07
2023-04-09T16:40:09.874Z,15.60
2023-04-09T16:42:38.751Z,15.25
2023-04-09T16:45:09.173Z,15.77
2023-04-09T16:47:37.456Z,14.00
2023-04-09T16:50:07.762Z,15.20
2023-04-09T16:52:36.699Z,14.90
2023-04-09T16:55:05.349Z,14.93
2023-04-09T16:57:34.346Z,14.25
2023-04-09T17:00:04.871Z,14.13
2023-04-09T17:02:33.685Z,15.97
2023-04-09T17:05:03.341Z,16.57
2023-04-09T17:07:32.164Z,15.18
2023-04-09T17:10:01.095Z,13.68
2023-04-09T17:12:29.929Z,15.88
2023-04-09T17:14:58.753Z,13.48
2023-04-09T17:17:27.690Z,14.68
2023-04-09T17:19:57.822Z,15.47
2023-04-09T17:22:28.141Z,15.10
2023-04-09T17:24:56.598Z,14.37
2023-04-09T17:27:37.087Z,15.07
2023-04-09T17:30:05.737Z,14.43
2023-04-09T17:32:34.347Z,15.00
2023-04-09T17:35:03.672Z,14.90
2023-04-09T17:37:32.535Z,17.87
2023-04-09T17:40:01.228Z,14.67
2023-04-09T17:42:30.107Z,16.20
2023-04-09T17:44:58.990Z,16.30
2023-04-09T17:47:28.139Z,15.47
2023-04-09T17:49:56.714Z,15.03
2023-04-09T17:52:25.465Z,15.93
2023-04-09T17:54:54.035Z,17.40
2023-04-09T17:57:22.554Z,20.07
2023-04-09T17:59:52.392Z,20.23
2023-04-09T18:02:21.543Z,22.13
2023-04-09T18:04:50.415Z,20.40
2023-04-09T18:07:18.947Z,23.57
2023-04-09T18:09:47.540Z,22.63
2023-04-09T18:12:16.826Z,22.30
2023-04-09T18:14:47.896Z,23.37
2023-04-09T18:17:17.338Z,21.30
2023-04-09T18:19:47.369Z,24.37
2023-04-09T18:22:16.482Z,21.37
2023-04-09T18:24:46.947Z,21.77
2023-04-09T18:27:16.125Z,20.57
2023-04-09T18:29:44.665Z,20.37
2023-04-09T18:32:13.073Z,17.43
2023-04-09T18:34:41.772Z,17.40
2023-04-09T18:37:10.274Z,19.67
2023-04-09T18:39:38.816Z,17.60
2023-04-09T18:42:07.509Z,20.00
2023-04-09T18:44:37.681Z,21.23
2023-04-09T18:47:08.696Z,19.90
2023-04-09T18:49:37.366Z,20.33
2023-04-09T18:52:06.176Z,19.97
2023-04-09T18:54:36.337Z,18.65
2023-04-09T18:57:05.333Z,19.13
2023-04-09T18:59:35.046Z,18.00
2023-04-09T19:02:05.042Z,17.93
2023-04-09T19:04:37.721Z,17.10
2023-04-09T19:07:06.312Z,17.23
2023-04-09T19:09:36.965Z,16.82
2023-04-09T19:12:05.365Z,18.10
2023-04-09T19:14:35.804Z,17.17
2023-04-09T19:17:05.063Z,16.17
2023-04-09T19:19:33.898Z,17.82
2023-04-09T19:22:03.152Z,17.67
2023-04-09T19:24:31.675Z,16.70
2023-04-09T19:27:01.839Z,19.00
2023-04-09T19:29:30.731Z,19.00
2023-04-09T19:31:59.617Z,17.77
2023-04-09T19:34:28.181Z,18.80
2023-04-09T19:36:56.692Z,17.27
2023-04-09T19:39:25.286Z,17.77
2023-04-09T19:41:53.808Z,18.13
2023-04-09T19:44:23.503Z,16.77
2023-04-09T19:46:52.047Z,18.53
2023-04-09T19:49:20.612Z,17.70
2023-04-09T19:51:49.726Z,15.93
2023-04-09T19:54:18.212Z,16.27
2023-04-09T19:56:47.030Z,16.73
2023-04-09T19:59:15.239Z,15.83
2023-04-09T20:01:43.854Z,17.90
2023-04-09T20:04:12.749Z,16.97
2023-04-09T20:06:42.940Z,16.13
2023-04-09T20:09:12.861Z,16.63
2023-04-09T20:11:42.165Z,15.87
2023-04-09T20:14:12.082Z,17.25
2023-04-09T20:16:40.886Z,15.90
2023-04-09T20:19:09.366Z,17.13
2023-04-09T20:21:37.897Z,16.50
2023-04-09T20:24:06.670Z,16.67
2023-04-09T20:26:35.251Z,16.30
2023-04-09T20:29:04.817Z,16.27
2023-04-09T20:31:35.075Z,14.83
2023-04-09T20:34:03.795Z,16.40
2023-04-09T20:36:32.407Z,15.33
2023-04-09T20:39:01.289Z,15.83
2023-04-09T20:41:30.022Z,17.10
2023-04-09T20:43:58.564Z,15.87
2023-04-09T20:46:27.253Z,18.53
2023-04-09T20:48:55.936Z,17.47
2023-04-09T20:51:24.688Z,17.23
2023-04-09T20:53:53.208Z,19.07
2023-04-09T20:56:21.427Z,17.83
2023-04-09T20:58:50.042Z,16.83
2023-04-09T21:01:18.748Z,17.87
2023-04-09T21:03:47.512Z,19.00
2023-04-09T21:06:17.679Z,18.07
2023-04-09T21:08:47.189Z,17.03
2023-04-09T21:11:15.644Z,19.03
2023-04-09T21:13:53.681Z,17.63
2023-04-09T21:16:15.442Z,20.90
2023-04-09T21:18:44.721Z,20.00
2023-04-09T21:21:21.472Z,21.07
2023-04-09T21:23:50.084Z,19.53
2023-04-09T21:26:18.694Z,19.73
2023-04-09T21:28:48.908Z,19.40
2023-04-09T21:31:17.670Z,20.13
2023-04-09T21:33:49.115Z,21.60
2023-04-09T21:38:45.112Z,20.80
2023-04-09T21:41:13.385Z,21.00
2023-04-09T21:43:42.275Z,22.03
2023-04-09T21:46:16.892Z,21.37
2023-04-09T21:48:46.099Z,17.57
2023-04-09T21:51:14.336Z,18.77
2023-04-09T21:53:42.852Z,18.00
2023-04-09T21:56:11.282Z,18.53
2023-04-09T21:58:39.798Z,17.23
2023-04-09T22:01:15.890Z,15.10
2023-04-09T22:03:39.422Z,15.40
2023-04-09T22:06:10.839Z,15.63
2023-04-09T22:08:49.336Z,18.15
2023-04-09T22:11:09.286Z,16.13
2023-04-09T22:13:37.863Z,15.27
2023-04-09T22:16:06.599Z,15.13
2023-04-09T22:18:35.550Z,15.27
2023-04-09T22:21:04.528Z,14.33
2023-04-09T22:23:33.056Z,13.90
2023-04-09T22:26:02.119Z,13.53
2023-04-09T22:28:30.711Z,13.40
2023-04-09T22:30:59.652Z,17.00
2023-04-09T22:33:28.386Z,16.10
2023-04-09T22:35:56.929Z,16.67
2023-04-09T22:38:25.878Z,16.80
2023-04-09T22:40:54.705Z,16.65
2023-04-09T22:43:24.396Z,15.68
2023-04-09T22:45:54.301Z,17.42
2023-04-09T22:48:23.025Z,15.07
2023-04-09T22:50:52.028Z,14.90
2023-04-09T22:53:21.102Z,15.48
2023-04-09T22:55:51.929Z,14.63
2023-04-09T22:58:20.620Z,16.65
2023-04-09T23:00:50.353Z,17.48
2023-04-09T23:03:19.004Z,16.00
2023-04-09T23:05:47.630Z,17.63
2023-04-09T23:08:16.020Z,16.83
2023-04-09T23:10:44.546Z,15.07
2023-04-09T23:13:14.811Z,15.00
2023-04-09T23:15:43.419Z,16.10
2023-04-09T23:18:11.790Z,18.53
2023-04-09T23:20:40.299Z,16.30
2023-04-09T23:23:08.752Z,15.37
2023-04-09T23:25:37.627Z,15.63
2023-04-09T23:28:06.150Z,15.80
2023-04-09T23:30:34.666Z,18.00
2023-04-09T23:33:03.769Z,17.00
2023-04-09T23:35:32.269Z,16.57
2023-04-09T23:38:00.801Z,16.20
2023-04-09T23:40:29.396Z,18.10
2023-04-09T23:42:58.250Z,18.48
2023-04-09T23:45:27.105Z,16.60
2023-04-09T23:47:56.465Z,16.45
2023-04-09T23:50:25.117Z,16.43
2023-04-09T23:52:55.307Z,17.13
2023-04-09T23:55:23.977Z,17.37
2023-04-09T23:57:52.825Z,16.70
